Terminal Aerodrome Forecast
Issued by NWS

Home | Current Version | Previous Version | Text Only | Print | Product List | Glossary On
Versions: 1 2 3 4 5 6 7 8 9 10 11 12 13 14 15 16 17 18 19 20 21 22 23 24 25 26 27 28 29 30 31 32 33 34 35
000
FTUS43 KDLH 281610 AAB
TAFHIB
TAF AMD
KHIB 281610Z 2816/2912 VRB06KT P6SM OVC009
      TEMPO 2816/2818 BKN011
     FM281800 23008G15KT P6SM SCT015 BKN250
     FM282100 22008G14KT P6SM SCT050 BKN110
     FM290200 21005KT P6SM VCSH SCT020 BKN050 PROB30 2902/2907 -TSRA
      BKN050CB
     FM290900 22004KT P6SM SCT050=

USA.gov is the U.S. government's official web portal to all federal, state and local government web resources and services.